Time,TemperatureF,DewpointF,PressureIn,WindDirection,WindDirectionDegrees,WindSpeedMPH,WindSpeedGustMPH,Humidity,HourlyPrecipIn,Conditions,Clouds,dailyrainin,SolarRadiationWatts/m^2,SoftwareType,DateUTC
2013-02-25 00:10:00,57.5,54.0,29.87,North,355,0.0,0.0,88,0.00,,,0.00,0,weatherlink.com 1.10,2013-02-25 05:10:00,
2013-02-25 00:25:00,57.8,54.0,29.86,North,355,0.0,0.0,88,0.00,,,0.00,0,weatherlink.com 1.10,2013-02-25 05:25:00,
2013-02-25 00:40:00,58.0,55.0,29.86,North,355,0.0,0.0,89,0.00,,,0.00,0,weatherlink.com 1.10,2013-02-25 05:40:00,
2013-02-25 00:55:00,58.1,55.0,29.84,North,355,0.0,1.0,89,0.00,,,0.00,0,weatherlink.com 1.10,2013-02-25 05:55:00,
2013-02-25 01:10:00,58.3,56.0,29.85,North,355,0.0,0.0,90,0.00,,,0.00,0,weatherlink.com 1.10,2013-02-25 06:10:00,
2013-02-25 01:27:00,58.6,56.0,29.86,North,355,0.0,0.0,90,0.00,,,0.00,0,weatherlink.com 1.10,2013-02-25 06:27:00,
2013-02-25 01:42:00,58.7,56.0,29.86,North,355,0.0,0.0,90,0.00,,,0.00,0,weatherlink.com 1.10,2013-02-25 06:42:00,
2013-02-25 01:57:00,59.0,56.0,29.85,North,355,0.0,0.0,91,0.00,,,0.00,0,weatherlink.com 1.10,2013-02-25 06:57:00,
2013-02-25 02:12:00,59.3,57.0,29.84,North,355,0.0,1.0,91,0.00,,,0.00,0,weatherlink.com 1.10,2013-02-25 07:12:00,
2013-02-25 02:27:00,59.6,57.0,29.83,North,355,0.0,0.0,91,0.00,,,0.00,0,weatherlink.com 1.10,2013-02-25 07:27:00,
2013-02-25 02:42:00,59.8,57.0,29.83,North,355,0.0,0.0,91,0.00,,,0.00,0,weatherlink.com 1.10,2013-02-25 07:42:00,
2013-02-25 02:57:00,60.1,58.0,29.82,North,355,0.0,0.0,92,0.01,,,0.01,0,weatherlink.com 1.10,2013-02-25 07:57:00,
2013-02-25 03:11:00,60.5,58.0,29.82,North,10,0.0,5.0,92,0.02,,,0.02,0,weatherlink.com 1.10,2013-02-25 08:11:00,
2013-02-25 03:27:00,60.5,58.0,29.82,North,10,0.0,0.0,92,0.02,,,0.02,0,weatherlink.com 1.10,2013-02-25 08:27:00,
2013-02-25 03:42:00,60.7,58.0,29.82,North,10,0.0,0.0,92,0.03,,,0.03,0,weatherlink.com 1.10,2013-02-25 08:42:00,
2013-02-25 03:56:00,60.9,59.0,29.81,North,10,0.0,1.0,92,0.03,,,0.04,0,weatherlink.com 1.10,2013-02-25 08:56:00,
2013-02-25 04:12:00,60.9,59.0,29.80,North,11,0.0,2.0,92,0.02,,,0.04,0,weatherlink.com 1.10,2013-02-25 09:12:00,
2013-02-25 04:27:00,60.7,58.0,29.81,NNE,22,0.0,2.0,92,0.02,,,0.04,0,weatherlink.com 1.10,2013-02-25 09:27:00,
2013-02-25 04:42:00,60.7,58.0,29.80,NNE,22,0.0,2.0,92,0.02,,,0.05,0,weatherlink.com 1.10,2013-02-25 09:42:00,
2013-02-25 04:57:00,60.9,59.0,29.81,NNE,22,0.0,2.0,92,0.02,,,0.06,0,weatherlink.com 1.10,2013-02-25 09:57:00,
2013-02-25 05:13:00,61.2,59.0,29.82,NNE,22,0.0,1.0,93,0.03,,,0.07,0,weatherlink.com 1.10,2013-02-25 10:13:00,
2013-02-25 05:27:00,61.3,59.0,29.82,ENE,76,0.0,5.0,93,0.04,,,0.08,0,weatherlink.com 1.10,2013-02-25 10:27:00,
2013-02-25 05:43:00,61.5,60.0,29.82,NE,44,0.0,3.0,93,0.04,,,0.09,0,weatherlink.com 1.10,2013-02-25 10:43:00,
2013-02-25 05:58:00,61.8,60.0,29.82,NE,49,0.0,4.0,93,0.03,,,0.09,0,weatherlink.com 1.10,2013-02-25 10:58:00,
2013-02-25 06:13:00,62.0,60.0,29.82,East,92,0.0,5.0,93,0.02,,,0.09,0,weatherlink.com 1.10,2013-02-25 11:13:00,
2013-02-25 06:28:00,62.0,60.0,29.82,ENE,69,3.0,3.0,94,0.01,,,0.09,0,weatherlink.com 1.10,2013-02-25 11:28:00,
2013-02-25 06:43:00,61.8,60.0,29.82,NNE,17,3.0,6.0,94,0.01,,,0.10,0,weatherlink.com 1.10,2013-02-25 11:43:00,
2013-02-25 06:58:00,61.3,60.0,29.83,North,349,0.0,6.0,94,0.03,,,0.12,0,weatherlink.com 1.10,2013-02-25 11:58:00,
2013-02-25 07:13:00,61.0,59.0,29.84,North,9,0.0,8.0,94,0.04,,,0.13,0,weatherlink.com 1.10,2013-02-25 12:13:00,
2013-02-25 07:28:00,60.9,59.0,29.84,ENE,73,2.0,11.0,94,0.06,,,0.15,0,weatherlink.com 1.10,2013-02-25 12:28:00,
2013-02-25 07:43:00,60.9,59.0,29.82,NE,55,0.0,11.0,94,0.09,,,0.19,0,weatherlink.com 1.10,2013-02-25 12:43:00,
2013-02-25 07:58:00,60.9,60.0,29.82,NNE,28,1.0,7.0,95,0.15,,,0.27,0,weatherlink.com 1.10,2013-02-25 12:58:00,
2013-02-25 08:13:00,61.2,60.0,29.83,NNE,24,6.0,9.0,95,0.25,,,0.38,0,weatherlink.com 1.10,2013-02-25 13:13:00,
2013-02-25 08:28:00,61.5,60.0,29.83,NNE,20,4.0,5.0,96,0.93,,,1.08,39,weatherlink.com 1.10,2013-02-25 13:28:00,
2013-02-25 08:43:00,61.6,61.0,29.82,East,86,1.0,12.0,96,0.96,,,1.16,32,weatherlink.com 1.10,2013-02-25 13:43:00,
2013-02-25 08:58:00,62.0,61.0,29.85,ENE,78,0.0,6.0,96,0.89,,,1.16,79,weatherlink.com 1.10,2013-02-25 13:58:00,
2013-02-25 09:28:00,62.3,61.0,29.85,East,89,7.0,8.0,96,0.04,,,1.16,141,weatherlink.com 1.10,2013-02-25 14:28:00,
2013-02-25 09:45:00,62.6,62.0,29.85,NE,49,0.0,10.0,96,0.00,,,1.16,176,weatherlink.com 1.10,2013-02-25 14:45:00,
2013-02-25 10:00:00,62.9,62.0,29.84,ENE,74,3.0,9.0,96,0.00,,,1.16,149,weatherlink.com 1.10,2013-02-25 15:00:00,
2013-02-25 10:15:00,63.2,62.0,29.84,ENE,57,0.0,8.0,96,0.00,,,1.16,167,weatherlink.com 1.10,2013-02-25 15:15:00,
2013-02-25 10:30:00,63.2,62.0,29.84,ENE,78,0.0,8.0,96,0.00,,,1.16,192,weatherlink.com 1.10,2013-02-25 15:30:00,
2013-02-25 10:45:00,63.7,63.0,29.84,East,84,0.0,11.0,96,0.00,,,1.16,229,weatherlink.com 1.10,2013-02-25 15:45:00,
2013-02-25 11:00:00,64.0,62.0,29.83,ESE,109,4.0,13.0,94,0.00,,,1.16,221,weatherlink.com 1.10,2013-02-25 16:00:00,
2013-02-25 11:15:00,64.3,62.0,29.83,NNE,32,0.0,11.0,93,0.00,,,1.16,209,weatherlink.com 1.10,2013-02-25 16:15:00,
2013-02-25 11:30:00,64.8,63.0,29.83,East,98,0.0,10.0,92,0.00,,,1.16,120,weatherlink.com 1.10,2013-02-25 16:30:00,
2013-02-25 11:45:00,64.8,62.0,29.82,East,96,5.0,12.0,90,0.03,,,1.19,47,weatherlink.com 1.10,2013-02-25 16:45:00,
2013-02-25 12:00:00,64.7,62.0,29.82,ESE,113,0.0,11.0,91,0.03,,,1.19,102,weatherlink.com 1.10,2013-02-25 17:00:00,
2013-02-25 12:15:00,64.7,62.0,29.83,SE,131,0.0,6.0,91,0.03,,,1.19,102,weatherlink.com 1.10,2013-02-25 17:15:00,
2013-02-25 12:30:00,64.7,62.0,29.82,NE,49,0.0,10.0,91,0.03,,,1.19,134,weatherlink.com 1.10,2013-02-25 17:30:00,
2013-02-25 12:45:00,65.0,62.0,29.82,ENE,71,0.0,10.0,90,0.00,,,1.19,84,weatherlink.com 1.10,2013-02-25 17:45:00,
2013-02-25 13:00:00,65.0,62.0,29.81,North,9,0.0,4.0,89,0.00,,,1.19,86,weatherlink.com 1.10,2013-02-25 18:00:00,
2013-02-25 13:15:00,65.0,62.0,29.81,ESE,117,0.0,8.0,89,0.00,,,1.19,32,weatherlink.com 1.10,2013-02-25 18:15:00,
2013-02-25 13:30:00,65.0,61.0,29.80,WSW,244,1.0,17.0,87,0.02,,,1.21,79,weatherlink.com 1.10,2013-02-25 18:30:00,
2013-02-25 13:46:00,65.2,61.0,29.80,NNW,345,0.0,3.0,86,0.02,,,1.21,69,weatherlink.com 1.10,2013-02-25 18:46:00,
2013-02-25 14:00:00,64.8,61.0,29.79,NNW,346,0.0,3.0,86,0.02,,,1.21,51,weatherlink.com 1.10,2013-02-25 19:00:00,
2013-02-25 14:16:00,64.3,60.0,29.79,NE,49,0.0,4.0,87,0.02,,,1.21,44,weatherlink.com 1.10,2013-02-25 19:16:00,
2013-02-25 14:31:00,64.2,61.0,29.78,North,355,3.0,4.0,88,0.00,,,1.21,39,weatherlink.com 1.10,2013-02-25 19:31:00,
2013-02-25 14:46:00,64.0,61.0,29.77,NNE,27,4.0,11.0,89,0.01,,,1.22,39,weatherlink.com 1.10,2013-02-25 19:46:00,
2013-02-25 15:02:00,63.9,61.0,29.78,NE,37,0.0,6.0,90,0.01,,,1.22,37,weatherlink.com 1.10,2013-02-25 20:02:00,
2013-02-25 15:16:00,63.9,61.0,29.78,North,5,0.0,4.0,91,0.02,,,1.23,25,weatherlink.com 1.10,2013-02-25 20:16:00,
2013-02-25 15:31:00,63.9,61.0,29.78,NE,34,1.0,5.0,91,0.03,,,1.24,28,weatherlink.com 1.10,2013-02-25 20:31:00,
2013-02-25 15:46:00,63.9,62.0,29.76,NE,44,1.0,7.0,92,0.03,,,1.25,39,weatherlink.com 1.10,2013-02-25 20:46:00,
2013-02-25 16:01:00,64.0,62.0,29.76,ESE,109,0.0,7.0,92,0.04,,,1.26,40,weatherlink.com 1.10,2013-02-25 21:01:00,
2013-02-25 16:16:00,64.0,62.0,29.78,ESE,113,0.0,8.0,93,0.04,,,1.27,25,weatherlink.com 1.10,2013-02-25 21:16:00,
2013-02-25 16:31:00,64.2,62.0,29.76,East,94,0.0,7.0,93,0.04,,,1.28,19,weatherlink.com 1.10,2013-02-25 21:31:00,
2013-02-25 16:46:00,64.3,62.0,29.77,NE,43,0.0,6.0,93,0.04,,,1.29,23,weatherlink.com 1.10,2013-02-25 21:46:00,
2013-02-25 17:02:00,64.2,62.0,29.77,NE,53,3.0,5.0,93,0.11,,,1.37,11,weatherlink.com 1.10,2013-02-25 22:02:00,
2013-02-25 17:16:00,64.0,62.0,29.78,NE,48,0.0,3.0,94,0.17,,,1.44,12,weatherlink.com 1.10,2013-02-25 22:16:00,
2013-02-25 17:31:00,63.7,62.0,29.79,NNE,26,0.0,5.0,94,0.16,,,1.44,0,weatherlink.com 1.10,2013-02-25 22:31:00,
2013-02-25 17:46:00,62.7,61.0,29.79,NE,46,0.0,7.0,94,0.15,,,1.44,0,weatherlink.com 1.10,2013-02-25 22:46:00,
2013-02-25 18:03:00,61.8,60.0,29.77,SE,145,3.0,13.0,94,0.08,,,1.48,0,weatherlink.com 1.10,2013-02-25 23:03:00,
2013-02-25 18:16:00,61.2,60.0,29.76,NNW,346,4.0,13.0,94,0.08,,,1.52,0,weatherlink.com 1.10,2013-02-25 23:16:00,
2013-02-25 18:34:00,60.9,60.0,29.81,NW,323,1.0,3.0,95,0.28,,,1.72,0,weatherlink.com 1.10,2013-02-25 23:34:00,
2013-02-25 18:47:00,60.9,60.0,29.81,NE,35,3.0,5.0,95,0.58,,,2.02,0,weatherlink.com 1.10,2013-02-25 23:47:00,
2013-02-25 19:04:00,60.7,59.0,29.81,NE,34,0.0,5.0,95,0.75,,,2.23,0,weatherlink.com 1.10,2013-02-26 00:04:00,
2013-02-25 19:19:00,61.2,60.0,29.79,ESE,109,1.0,11.0,96,0.77,,,2.30,0,weatherlink.com 1.10,2013-02-26 00:19:00,
2013-02-25 19:34:00,61.8,61.0,29.79,ESE,106,3.0,18.0,97,0.59,,,2.32,0,weatherlink.com 1.10,2013-02-26 00:34:00,
2013-02-25 19:49:00,62.0,61.0,29.79,ESE,110,5.0,6.0,96,0.26,,,2.32,0,weatherlink.com 1.10,2013-02-26 00:49:00,
2013-02-25 20:04:00,62.3,61.0,29.77,East,90,5.0,10.0,96,0.08,,,2.32,0,weatherlink.com 1.10,2013-02-26 01:04:00,
2013-02-25 20:19:00,62.7,62.0,29.76,East,94,5.0,9.0,96,0.02,,,2.32,0,weatherlink.com 1.10,2013-02-26 01:19:00,
2013-02-25 20:33:00,63.4,62.0,29.78,ENE,78,0.0,8.0,96,0.01,,,2.33,0,weatherlink.com 1.10,2013-02-26 01:33:00,
2013-02-25 20:49:00,64.2,63.0,29.77,East,95,0.0,8.0,97,0.01,,,2.33,0,weatherlink.com 1.10,2013-02-26 01:49:00,
2013-02-25 21:04:00,64.8,64.0,29.77,ENE,71,0.0,10.0,97,0.01,,,2.33,0,weatherlink.com 1.10,2013-02-26 02:04:00,
2013-02-25 21:19:00,65.3,65.0,29.76,ESE,106,3.0,8.0,97,0.01,,,2.33,0,weatherlink.com 1.10,2013-02-26 02:19:00,
2013-02-25 21:34:00,65.6,65.0,29.76,ESE,108,0.0,9.0,97,0.00,,,2.33,0,weatherlink.com 1.10,2013-02-26 02:34:00,
2013-02-25 21:49:00,66.3,66.0,29.75,ENE,60,0.0,8.0,97,0.00,,,2.33,0,weatherlink.com 1.10,2013-02-26 02:49:00,
2013-02-25 22:04:00,66.6,66.0,29.75,ESE,120,0.0,9.0,97,0.00,,,2.33,0,weatherlink.com 1.10,2013-02-26 03:04:00,
2013-02-25 22:19:00,66.9,66.0,29.74,ESE,115,3.0,5.0,97,0.00,,,2.33,0,weatherlink.com 1.10,2013-02-26 03:19:00,
2013-02-25 22:34:00,67.1,66.0,29.74,SE,128,2.0,9.0,97,0.00,,,2.33,0,weatherlink.com 1.10,2013-02-26 03:34:00,
2013-02-25 22:49:00,67.1,66.0,29.73,East,98,2.0,8.0,97,0.00,,,2.33,0,weatherlink.com 1.10,2013-02-26 03:49:00,
2013-02-25 23:04:00,67.3,67.0,29.73,East,92,3.0,8.0,97,0.00,,,2.33,0,weatherlink.com 1.10,2013-02-26 04:04:00,
2013-02-25 23:19:00,67.3,67.0,29.74,ENE,75,0.0,7.0,97,0.00,,,2.33,0,weatherlink.com 1.10,2013-02-26 04:19:00,
2013-02-25 23:34:00,67.4,67.0,29.73,ENE,67,2.0,5.0,97,0.00,,,2.33,0,weatherlink.com 1.10,2013-02-26 04:34:00,
2013-02-25 23:49:00,67.4,67.0,29.73,ESE,119,0.0,9.0,97,0.00,,,2.33,0,weatherlink.com 1.10,2013-02-26 04:49:00,